Time;durP1;ratioP1;P1;durP2;ratioP2;P2;SDS_P1;SDS_P2;PMS_P1;PMS_P2;Temp;Humidity;BMP_temperature;BMP_pressure;BME280_temperature;BME280_humidity;BME280_pressure;Samples;Min_cycle;Max_cycle;Signal;HPM_P1;HPM_P2
2021/07/28 00:00:16;;;;;;;7.90;7.20;;;19.00;99.90;;;;;;5069928;28;20540;-77
2021/07/28 00:02:42;;;;;;;8.23;7.47;;;19.00;99.90;;;;;;5063788;28;20466;-77
2021/07/28 00:05:10;;;;;;;7.30;6.27;;;19.00;99.90;;;;;;5061806;28;20478;-77
2021/07/28 00:07:38;;;;;;;8.40;7.17;;;18.90;99.90;;;;;;5062174;28;20455;-77
2021/07/28 00:10:06;;;;;;;7.47;6.77;;;18.90;99.90;;;;;;5051075;28;20459;-77
2021/07/28 00:12:33;;;;;;;7.13;6.43;;;18.90;99.90;;;;;;5051528;28;20830;-78
2021/07/28 00:14:59;;;;;;;7.23;6.60;;;18.80;99.90;;;;;;5051551;28;20490;-77
2021/07/28 00:17:27;;;;;;;7.67;6.97;;;18.80;99.90;;;;;;5051229;28;20466;-77
2021/07/28 00:19:57;;;;;;;6.67;5.97;;;18.80;99.90;;;;;;5050740;28;20497;-77
2021/07/28 00:25:11;;;;;;;7.20;6.53;;;18.80;99.90;;;;;;5051245;28;20471;-77
2021/07/28 00:27:38;;;;;;;7.73;6.23;;;18.80;99.90;;;;;;5051235;28;20471;-77
2021/07/28 00:30:09;;;;;;;8.10;6.80;;;18.80;99.90;;;;;;5050598;28;20475;-77
2021/07/28 00:32:35;;;;;;;7.00;6.30;;;18.80;99.90;;;;;;5051136;28;20462;-77
2021/07/28 00:35:03;;;;;;;7.20;6.50;;;18.70;99.90;;;;;;5050792;28;20577;-77
2021/07/28 00:37:30;;;;;;;6.60;6.00;;;18.70;99.90;;;;;;5050598;28;20459;-77
2021/07/28 00:39:56;;;;;;;6.53;6.03;;;18.70;99.90;;;;;;5050450;28;20486;-77
2021/07/28 00:42:25;;;;;;;6.60;6.00;;;18.70;99.90;;;;;;5050836;28;20963;-77
2021/07/28 00:44:51;;;;;;;7.10;6.47;;;18.70;99.90;;;;;;5050518;28;20479;-77
2021/07/28 00:47:18;;;;;;;7.63;6.93;;;18.70;99.90;;;;;;5050663;28;20463;-77
2021/07/28 00:49:45;;;;;;;7.00;6.30;;;18.70;99.90;;;;;;5050234;28;20463;-77
2021/07/28 00:52:12;;;;;;;6.33;5.73;;;18.60;99.90;;;;;;5050952;28;20482;-77
2021/07/28 00:54:40;;;;;;;6.83;6.13;;;18.60;99.90;;;;;;5050527;28;21005;-77
2021/07/28 00:57:07;;;;;;;7.20;6.50;;;18.60;99.90;;;;;;5050714;28;20460;-78
2021/07/28 00:59:36;;;;;;;9.37;7.00;;;18.60;99.90;;;;;;5049938;28;20524;-77
2021/07/28 01:02:02;;;;;;;7.70;6.43;;;18.60;99.90;;;;;;5050527;28;20467;-77
2021/07/28 01:04:29;;;;;;;8.23;7.33;;;18.60;99.90;;;;;;5050299;28;20487;-77
2021/07/28 01:06:58;;;;;;;7.00;6.27;;;18.60;99.90;;;;;;5050547;28;20463;-77
2021/07/28 01:09:28;;;;;;;6.50;5.90;;;18.60;99.90;;;;;;5049935;28;20463;-77
2021/07/28 01:11:55;;;;;;;7.37;6.67;;;18.50;99.90;;;;;;5050019;28;20498;-77
2021/07/28 01:14:22;;;;;;;6.70;6.10;;;18.50;99.90;;;;;;5049938;28;20456;-77
2021/07/28 01:16:52;;;;;;;6.43;5.83;;;18.50;99.90;;;;;;5050523;28;20463;-77
2021/07/28 01:19:20;;;;;;;7.77;6.30;;;18.50;99.90;;;;;;5049713;28;20456;-77
2021/07/28 01:21:50;;;;;;;7.80;7.10;;;18.50;99.90;;;;;;5050123;28;20519;-77
2021/07/28 01:24:19;;;;;;;6.97;6.27;;;18.50;99.90;;;;;;5048968;28;20459;-78
2021/07/28 01:26:46;;;;;;;7.77;7.07;;;18.40;99.90;;;;;;5050349;28;20935;-78
2021/07/28 01:29:14;;;;;;;8.07;6.27;;;18.50;99.90;;;;;;5047780;28;20467;-78
2021/07/28 01:31:43;;;;;;;7.47;6.57;;;18.40;99.90;;;;;;5050137;28;20526;-77
2021/07/28 01:34:11;;;;;;;7.00;6.30;;;18.40;99.90;;;;;;5049431;28;20495;-78
2021/07/28 01:36:40;;;;;;;7.10;6.40;;;18.50;99.90;;;;;;5049871;28;20459;-77
2021/07/28 01:39:07;;;;;;;7.37;6.67;;;18.40;99.90;;;;;;5047409;28;20460;-78
2021/07/28 01:41:35;;;;;;;6.47;5.97;;;18.40;99.90;;;;;;5046942;28;20578;-77
2021/07/28 01:44:02;;;;;;;8.33;7.47;;;18.40;99.90;;;;;;5046929;28;20467;-77
2021/07/28 01:46:29;;;;;;;7.57;6.87;;;18.40;99.90;;;;;;5046916;28;20487;-77
2021/07/28 01:48:56;;;;;;;10.30;7.00;;;18.30;99.90;;;;;;5046436;28;20774;-78
2021/07/28 01:51:22;;;;;;;7.27;6.57;;;18.30;99.90;;;;;;5046876;28;20462;-78
2021/07/28 01:53:49;;;;;;;7.37;6.37;;;18.30;99.90;;;;;;5047913;28;20459;-78
2021/07/28 01:56:17;;;;;;;7.10;6.40;;;18.30;99.90;;;;;;5049475;28;20514;-78
2021/07/28 01:58:53;;;;;;;6.30;5.80;;;18.30;99.90;;;;;;5049461;28;20459;-78
2021/07/28 02:01:20;;;;;;;9.63;6.10;;;18.30;99.90;;;;;;5048822;28;20486;-78
2021/07/28 02:03:47;;;;;;;6.10;5.60;;;18.30;99.90;;;;;;5049513;28;20884;-78
2021/07/28 02:06:14;;;;;;;6.03;5.50;;;18.30;99.90;;;;;;5048712;28;20483;-78
2021/07/28 02:08:41;;;;;;;6.30;5.70;;;18.30;99.90;;;;;;5049431;28;20471;-78
2021/07/28 02:11:07;;;;;;;6.17;5.53;;;18.20;99.90;;;;;;5047929;28;20822;-78
2021/07/28 02:13:34;;;;;;;6.40;5.80;;;18.20;99.90;;;;;;5049090;28;20589;-78
2021/07/28 02:16:02;;;;;;;5.40;4.90;;;18.20;99.90;;;;;;5049243;28;20487;-78
2021/07/28 02:18:29;;;;;;;6.30;5.70;;;18.20;99.90;;;;;;5048637;28;20463;-78
2021/07/28 02:20:58;;;;;;;5.13;4.73;;;18.20;99.90;;;;;;5045810;28;20712;-77
2021/07/28 02:23:25;;;;;;;6.07;5.47;;;18.20;99.90;;;;;;5045343;28;20585;-77
2021/07/28 02:25:52;;;;;;;6.00;4.73;;;18.20;99.90;;;;;;5046208;28;20486;-78
2021/07/28 02:28:19;;;;;;;5.13;4.70;;;18.10;99.90;;;;;;5048540;28;20463;-77
2021/07/28 02:30:45;;;;;;;6.17;5.57;;;18.10;99.90;;;;;;5048436;28;20468;-77
2021/07/28 02:33:13;;;;;;;5.90;5.20;;;18.00;99.90;;;;;;5048882;28;20464;-78
2021/07/28 02:35:40;;;;;;;5.30;4.80;;;18.00;99.90;;;;;;5048926;28;20483;-77
2021/07/28 02:38:07;;;;;;;5.73;5.13;;;18.00;99.90;;;;;;5048971;28;20978;-77
2021/07/28 02:40:34;;;;;;;5.33;4.83;;;18.10;99.90;;;;;;5048504;28;20490;-78
2021/07/28 02:43:00;;;;;;;5.37;4.93;;;18.10;99.90;;;;;;5048244;28;20467;-78
2021/07/28 02:45:27;;;;;;;5.90;5.40;;;18.00;99.90;;;;;;5047982;28;20490;-78
2021/07/28 02:47:54;;;;;;;5.43;4.93;;;18.00;99.90;;;;;;5048747;28;20472;-78
2021/07/28 02:50:22;;;;;;;6.27;5.67;;;17.90;99.90;;;;;;5048469;28;20459;-77
2021/07/28 02:52:48;;;;;;;6.03;5.47;;;17.90;99.90;;;;;;5048725;28;20475;-78
2021/07/28 02:55:16;;;;;;;6.20;5.50;;;17.90;99.90;;;;;;5048587;28;20475;-78
2021/07/28 02:57:42;;;;;;;6.40;5.80;;;17.90;99.90;;;;;;5048534;28;20517;-77
2021/07/28 03:00:10;;;;;;;5.93;5.43;;;17.90;99.90;;;;;;5049630;28;20472;-77
2021/07/28 03:02:37;;;;;;;6.00;5.40;;;17.90;99.90;;;;;;5052849;28;20467;-77
2021/07/28 03:05:04;;;;;;;5.97;5.47;;;17.80;99.90;;;;;;5052457;28;20483;-78
2021/07/28 03:07:33;;;;;;;6.60;5.70;;;17.80;99.90;;;;;;5052804;28;20474;-78
2021/07/28 03:10:00;;;;;;;5.90;5.40;;;17.70;99.90;;;;;;5051823;28;20558;-78
2021/07/28 03:12:27;;;;;;;7.03;5.47;;;17.70;99.90;;;;;;5052548;28;20466;-77
2021/07/28 03:14:54;;;;;;;7.10;5.53;;;17.60;99.90;;;;;;5053316;28;20490;-78
2021/07/28 03:17:21;;;;;;;7.37;5.90;;;17.60;99.90;;;;;;5053518;28;20486;-77
2021/07/28 03:19:48;;;;;;;6.30;5.80;;;17.60;99.90;;;;;;5052265;28;20459;-77
2021/07/28 03:22:14;;;;;;;8.03;5.90;;;17.60;99.90;;;;;;5052273;28;20483;-77
2021/07/28 03:24:43;;;;;;;6.73;5.83;;;17.50;99.90;;;;;;5052485;28;20494;-77
2021/07/28 03:27:09;;;;;;;7.10;5.70;;;17.50;99.90;;;;;;5054087;28;20459;-77
2021/07/28 03:29:36;;;;;;;6.13;5.53;;;17.50;99.90;;;;;;5052468;28;20463;-76
2021/07/28 03:32:03;;;;;;;6.70;6.00;;;17.50;99.90;;;;;;5052795;28;20466;-76
2021/07/28 03:34:30;;;;;;;8.13;5.80;;;17.50;99.90;;;;;;5055479;28;20483;-75
2021/07/28 03:36:57;;;;;;;7.90;5.27;;;17.50;99.90;;;;;;5062041;28;20820;-76
2021/07/28 03:39:23;;;;;;;8.03;5.90;;;17.40;99.90;;;;;;5064027;28;20459;-77
2021/07/28 03:41:51;;;;;;;6.67;5.40;;;17.40;99.90;;;;;;5062405;28;20491;-76
2021/07/28 03:44:18;;;;;;;6.00;5.40;;;17.40;99.90;;;;;;5060921;28;20468;-77
2021/07/28 03:46:45;;;;;;;6.57;5.03;;;17.40;99.90;;;;;;5062466;28;20461;-77
2021/07/28 03:49:11;;;;;;;5.17;4.50;;;17.40;99.90;;;;;;5062602;28;20455;-77
2021/07/28 03:51:38;;;;;;;5.37;4.90;;;17.40;99.90;;;;;;5062220;28;20451;-75
2021/07/28 03:54:05;;;;;;;6.90;5.60;;;17.40;99.90;;;;;;5063938;28;20833;-76
2021/07/28 03:56:31;;;;;;;9.53;6.23;;;17.40;99.90;;;;;;5055288;28;21158;-76
2021/07/28 03:58:59;;;;;;;5.87;5.07;;;17.30;99.90;;;;;;5054284;28;20456;-76
2021/07/28 04:01:26;;;;;;;6.00;5.40;;;17.40;99.90;;;;;;5051680;28;20479;-76
2021/07/28 04:03:53;;;;;;;7.93;5.90;;;17.30;99.90;;;;;;5064163;28;20451;-76
2021/07/28 04:06:20;;;;;;;6.53;5.57;;;17.40;99.90;;;;;;5059227;28;20479;-76
2021/07/28 04:08:48;;;;;;;7.33;5.60;;;17.40;99.90;;;;;;5068018;28;20459;-75
2021/07/28 04:11:14;;;;;;;5.93;5.40;;;17.30;99.90;;;;;;5061301;28;20459;-75
2021/07/28 04:13:41;;;;;;;6.90;6.20;;;17.30;99.90;;;;;;5065665;28;21015;-76
2021/07/28 04:16:09;;;;;;;8.27;6.17;;;17.30;99.90;;;;;;5061112;28;20478;-75
2021/07/28 04:18:36;;;;;;;6.00;5.40;;;17.30;99.90;;;;;;5062588;28;20485;-77
2021/07/28 04:21:02;;;;;;;6.80;6.10;;;17.30;99.90;;;;;;5061062;28;20485;-76
2021/07/28 04:23:29;;;;;;;7.10;6.03;;;17.30;99.90;;;;;;5060726;28;20470;-77
2021/07/28 04:25:58;;;;;;;7.70;5.60;;;17.30;99.90;;;;;;5060827;28;21099;-76
2021/07/28 04:28:24;;;;;;;9.03;5.43;;;17.30;99.90;;;;;;5065556;28;20461;-76
2021/07/28 04:30:51;;;;;;;6.40;5.40;;;17.30;99.90;;;;;;5070554;28;20459;-76
2021/07/28 04:33:20;;;;;;;5.70;5.20;;;17.30;99.90;;;;;;5070851;28;20467;-75
2021/07/28 04:35:47;;;;;;;6.47;5.87;;;17.40;99.90;;;;;;5070235;28;21021;-76
2021/07/28 04:38:14;;;;;;;5.90;5.30;;;17.40;99.90;;;;;;5071678;28;20908;-76
2021/07/28 04:40:40;;;;;;;6.87;6.27;;;17.40;99.90;;;;;;5072168;28;20462;-75
2021/07/28 04:43:07;;;;;;;5.50;5.00;;;17.40;99.90;;;;;;5072846;28;20481;-75
2021/07/28 04:45:34;;;;;;;8.50;6.07;;;17.40;99.90;;;;;;5073056;28;20477;-75
2021/07/28 04:48:00;;;;;;;6.20;5.60;;;17.40;99.90;;;;;;5072503;28;20458;-75
2021/07/28 04:50:28;;;;;;;7.40;5.83;;;17.40;99.90;;;;;;5072015;28;20454;-75
2021/07/28 04:52:55;;;;;;;7.73;5.47;;;17.40;99.90;;;;;;5072221;28;20473;-75
2021/07/28 04:55:22;;;;;;;6.50;5.40;;;17.40;99.90;;;;;;5071975;28;20485;-75
2021/07/28 04:57:48;;;;;;;5.53;5.03;;;17.40;99.90;;;;;;5071942;28;20469;-74
2021/07/28 05:00:16;;;;;;;5.97;5.37;;;17.40;99.90;;;;;;5069537;28;20461;-75
2021/07/28 05:02:43;;;;;;;6.90;6.03;;;17.50;99.90;;;;;;5052183;28;20527;-74
2021/07/28 05:05:10;;;;;;;6.30;5.60;;;17.50;99.90;;;;;;5051914;28;20480;-75
2021/07/28 05:07:38;;;;;;;7.30;5.40;;;17.50;99.90;;;;;;5052067;28;20534;-75
2021/07/28 05:10:06;;;;;;;6.07;5.57;;;17.50;99.90;;;;;;5050807;28;20918;-75
2021/07/28 05:12:32;;;;;;;5.23;4.77;;;17.50;99.90;;;;;;5056082;28;20460;-76
2021/07/28 05:15:00;;;;;;;6.50;5.57;;;17.50;99.90;;;;;;5063092;28;20487;-75
2021/07/28 05:17:27;;;;;;;6.57;5.97;;;17.50;99.90;;;;;;5061334;28;20541;-75
2021/07/28 05:19:53;;;;;;;6.80;5.43;;;17.50;99.90;;;;;;5061796;28;20459;-75
2021/07/28 05:22:20;;;;;;;6.77;6.17;;;17.50;99.90;;;;;;5059553;28;20486;-75
2021/07/28 05:24:48;;;;;;;6.73;6.07;;;17.50;99.90;;;;;;5060634;28;20978;-75
2021/07/28 05:27:16;;;;;;;8.63;5.50;;;17.60;99.90;;;;;;5061748;28;20458;-75
2021/07/28 05:32:11;;;;;;;5.93;5.33;;;17.60;99.90;;;;;;5063680;28;20838;-67
2021/07/28 05:34:38;;;;;;;6.23;5.73;;;17.50;99.90;;;;;;5067894;28;20481;-66
2021/07/28 05:37:05;;;;;;;6.03;5.43;;;17.50;99.90;;;;;;5068868;28;20508;-66
2021/07/28 05:39:32;;;;;;;6.03;5.43;;;17.60;99.90;;;;;;5068600;28;20454;-66
2021/07/28 05:42:00;;;;;;;7.33;5.67;;;17.60;99.90;;;;;;5068843;28;20497;-67
2021/07/28 05:44:28;;;;;;;5.47;4.97;;;17.60;99.90;;;;;;5069121;28;20850;-67
2021/07/28 05:46:55;;;;;;;5.87;5.27;;;17.70;99.90;;;;;;5068913;28;20461;-66
2021/07/28 05:49:22;;;;;;;5.53;5.03;;;17.70;99.90;;;;;;5068106;28;20798;-66
2021/07/28 05:51:49;;;;;;;7.80;5.73;;;17.70;99.90;;;;;;5068915;28;20494;-67
2021/07/28 05:54:15;;;;;;;5.37;4.87;;;17.70;99.90;;;;;;5068064;28;20454;-66
2021/07/28 05:56:42;;;;;;;6.33;5.73;;;17.80;99.90;;;;;;5068742;28;20459;-66
2021/07/28 05:59:10;;;;;;;6.93;5.50;;;17.70;99.90;;;;;;5068301;28;20976;-67
2021/07/28 06:01:37;;;;;;;6.53;5.57;;;17.70;99.90;;;;;;5068602;28;20482;-66
2021/07/28 06:04:04;;;;;;;7.23;6.47;;;17.70;99.90;;;;;;5068360;28;20489;-67
2021/07/28 06:06:30;;;;;;;7.80;5.97;;;17.70;99.90;;;;;;5068685;28;20470;-66
2021/07/28 06:08:57;;;;;;;5.80;5.30;;;17.70;99.90;;;;;;5068348;28;20466;-67
2021/07/28 06:11:24;;;;;;;6.40;5.80;;;17.80;99.90;;;;;;5068096;28;20458;-67
2021/07/28 06:13:51;;;;;;;6.30;5.70;;;17.80;99.90;;;;;;5068565;28;20465;-66
2021/07/28 06:16:19;;;;;;;5.87;5.37;;;17.80;99.90;;;;;;5068030;28;20479;-66
2021/07/28 06:18:46;;;;;;;5.70;5.07;;;17.90;99.90;;;;;;5068604;28;20470;-66
2021/07/28 06:21:13;;;;;;;6.03;5.10;;;17.80;99.90;;;;;;5068183;28;20473;-66
2021/07/28 06:23:39;;;;;;;6.87;6.10;;;17.80;99.90;;;;;;5068188;28;20459;-67
2021/07/28 06:26:06;;;;;;;6.10;5.50;;;17.80;99.90;;;;;;5068185;28;20486;-67
2021/07/28 06:28:33;;;;;;;6.10;5.33;;;17.80;99.90;;;;;;5056119;28;20462;-69
2021/07/28 06:31:00;;;;;;;6.40;5.50;;;17.80;99.90;;;;;;5048842;28;20885;-69
2021/07/28 06:33:28;;;;;;;5.97;5.37;;;17.80;99.90;;;;;;5046632;28;20460;-69
2021/07/28 06:35:55;;;;;;;6.33;5.30;;;17.80;99.90;;;;;;5065341;28;20482;-68
2021/07/28 06:38:22;;;;;;;6.83;5.93;;;17.70;99.90;;;;;;5068362;28;20950;-69
2021/07/28 06:40:49;;;;;;;6.70;6.00;;;17.70;99.90;;;;;;5067843;28;20466;-69
2021/07/28 06:43:15;;;;;;;5.93;5.10;;;17.70;99.90;;;;;;5068097;28;20494;-68
2021/07/28 06:45:42;;;;;;;8.03;5.10;;;17.70;99.90;;;;;;5068015;28;20482;-69
2021/07/28 06:48:09;;;;;;;5.60;4.90;;;17.60;99.90;;;;;;5068074;28;20462;-69
2021/07/28 06:50:37;;;;;;;5.77;5.17;;;17.60;99.90;;;;;;5067860;28;20462;-69
2021/07/28 06:53:04;;;;;;;6.17;4.90;;;17.60;99.90;;;;;;5067979;28;20459;-69
2021/07/28 06:55:31;;;;;;;6.30;5.60;;;17.60;99.90;;;;;;5068291;28;20478;-68
2021/07/28 06:57:57;;;;;;;6.70;5.70;;;17.60;99.90;;;;;;5067768;28;20544;-68
2021/07/28 07:00:24;;;;;;;6.17;5.57;;;17.60;99.90;;;;;;5067633;28;20972;-69
2021/07/28 07:02:56;;;;;;;6.07;5.23;;;17.60;99.90;;;;;;5068053;28;20876;-68
2021/07/28 07:05:22;;;;;;;6.70;6.00;;;17.60;99.90;;;;;;5068266;28;20474;-69
2021/07/28 07:07:50;;;;;;;7.57;6.30;;;17.60;99.90;;;;;;5068029;28;20462;-68
2021/07/28 07:10:17;;;;;;;6.80;6.10;;;17.60;99.90;;;;;;5067418;28;20494;-68
2021/07/28 07:12:44;;;;;;;6.87;5.77;;;17.60;99.90;;;;;;5068193;28;20530;-68
2021/07/28 07:15:11;;;;;;;6.70;6.00;;;17.60;99.90;;;;;;5067621;28;20486;-69
2021/07/28 07:17:38;;;;;;;6.57;5.97;;;17.60;99.90;;;;;;5068288;28;21076;-69
2021/07/28 07:20:06;;;;;;;6.53;5.73;;;17.60;99.90;;;;;;5067037;28;20454;-69
2021/07/28 07:22:32;;;;;;;6.53;5.93;;;17.50;99.90;;;;;;5067797;28;20486;-69
2021/07/28 07:25:00;;;;;;;5.93;5.43;;;17.50;99.90;;;;;;5067639;28;20478;-68
2021/07/28 07:27:27;;;;;;;6.13;5.53;;;17.50;99.90;;;;;;5068168;28;20466;-69
2021/07/28 07:29:55;;;;;;;7.40;6.20;;;17.50;99.90;;;;;;5067259;28;20462;-69
2021/07/28 07:32:22;;;;;;;6.50;5.90;;;17.50;99.90;;;;;;5067666;28;20958;-69
2021/07/28 07:34:49;;;;;;;6.50;5.90;;;17.50;99.90;;;;;;5067683;28;20997;-68
2021/07/28 07:37:16;;;;;;;6.83;6.20;;;17.50;99.90;;;;;;5067432;28;20465;-68
2021/07/28 07:39:42;;;;;;;6.40;5.80;;;17.60;99.90;;;;;;5067493;28;20876;-68
2021/07/28 07:42:10;;;;;;;6.00;5.37;;;17.60;99.90;;;;;;5067567;28;20487;-68
2021/07/28 07:44:37;;;;;;;6.20;5.47;;;17.60;99.90;;;;;;5067291;28;21024;-68
2021/07/28 07:47:04;;;;;;;6.63;5.53;;;17.60;99.90;;;;;;5069048;28;20845;-68
2021/07/28 07:49:30;;;;;;;7.23;6.53;;;17.60;99.90;;;;;;5070724;28;20466;-68
2021/07/28 07:51:57;;;;;;;6.27;5.73;;;17.60;99.90;;;;;;5071032;28;20469;-68
2021/07/28 07:54:24;;;;;;;6.47;5.87;;;17.50;99.90;;;;;;5071086;28;20463;-68
2021/07/28 07:56:51;;;;;;;7.77;6.10;;;17.50;99.90;;;;;;5071383;28;20501;-69
2021/07/28 07:59:19;;;;;;;9.03;5.40;;;17.50;99.90;;;;;;5070610;28;20469;-68
2021/07/28 08:01:45;;;;;;;6.50;5.90;;;17.40;99.90;;;;;;5070907;28;20459;-68
2021/07/28 08:04:12;;;;;;;6.90;5.73;;;17.50;99.90;;;;;;5052602;28;20468;-68
2021/07/28 08:06:39;;;;;;;7.60;5.87;;;17.50;99.90;;;;;;5050722;28;20467;-68
2021/07/28 08:09:05;;;;;;;9.70;6.50;;;17.40;99.90;;;;;;5050510;28;20848;-67
2021/07/28 08:11:32;;;;;;;6.80;6.10;;;17.40;99.90;;;;;;5050899;28;20487;-68
2021/07/28 08:13:59;;;;;;;5.80;5.30;;;17.40;99.90;;;;;;5050683;28;20452;-68
2021/07/28 08:16:27;;;;;;;9.13;6.10;;;17.40;99.90;;;;;;5051231;28;20486;-69
2021/07/28 08:18:53;;;;;;;6.80;5.67;;;17.40;99.90;;;;;;5051069;28;20455;-69
2021/07/28 08:21:20;;;;;;;6.60;6.00;;;17.40;99.90;;;;;;5050508;28;20475;-69
2021/07/28 08:23:48;;;;;;;6.87;5.90;;;17.40;99.90;;;;;;5050925;28;20499;-69
2021/07/28 08:26:16;;;;;;;6.50;5.87;;;17.40;99.90;;;;;;5050688;28;20484;-68
2021/07/28 08:28:43;;;;;;;7.17;6.20;;;17.40;99.90;;;;;;5051035;28;20467;-69
2021/07/28 08:31:10;;;;;;;6.70;5.90;;;17.40;99.90;;;;;;5050127;28;20463;-69
2021/07/28 08:33:38;;;;;;;7.07;5.43;;;17.40;99.90;;;;;;5051031;28;20463;-69
2021/07/28 08:36:05;;;;;;;6.80;5.87;;;17.50;99.90;;;;;;5050561;28;20491;-69
2021/07/28 08:38:32;;;;;;;6.33;5.73;;;17.50;99.90;;;;;;5050974;28;20463;-69
2021/07/28 08:41:01;;;;;;;6.97;5.60;;;17.50;99.90;;;;;;5050041;28;20554;-68
2021/07/28 08:43:30;;;;;;;7.23;6.53;;;17.50;99.90;;;;;;5050716;28;21059;-69
2021/07/28 08:45:58;;;;;;;6.27;5.77;;;17.50;99.90;;;;;;5050401;28;20483;-69
2021/07/28 08:48:27;;;;;;;6.30;5.17;;;17.50;99.90;;;;;;5050643;28;20463;-69
2021/07/28 08:50:56;;;;;;;6.10;5.50;;;17.50;99.90;;;;;;5049955;28;20528;-69
2021/07/28 08:53:23;;;;;;;5.80;5.20;;;17.50;99.90;;;;;;5050871;28;20502;-69
2021/07/28 08:55:52;;;;;;;6.10;5.60;;;17.50;99.90;;;;;;5050641;28;20491;-68
2021/07/28 08:58:21;;;;;;;5.70;5.20;;;17.60;99.90;;;;;;5050478;28;20490;-69
2021/07/28 09:00:49;;;;;;;6.73;5.77;;;17.60;99.90;;;;;;5056144;28;20953;-69
2021/07/28 09:03:16;;;;;;;6.93;5.87;;;17.70;99.90;;;;;;5069972;28;21249;-69
2021/07/28 09:05:44;;;;;;;6.93;5.40;;;17.70;99.90;;;;;;5070498;28;20804;-69
2021/07/28 09:08:23;;;;;;;5.70;5.10;;;17.70;99.90;;;;;;5069795;28;20458;-69
2021/07/28 09:10:51;;;;;;;5.23;4.73;;;17.80;99.90;;;;;;5069811;28;20462;-68
2021/07/28 09:13:32;;;;;;;5.90;5.40;;;17.80;99.90;;;;;;5069797;28;20459;-69
2021/07/28 09:16:01;;;;;;;5.50;4.70;;;17.80;99.90;;;;;;5069886;28;20486;-68
2021/07/28 09:18:35;;;;;;;5.87;5.27;;;17.70;99.90;;;;;;5070100;28;20500;-69
2021/07/28 09:21:04;;;;;;;7.70;5.97;;;17.80;99.90;;;;;;5069076;28;20473;-68
2021/07/28 09:23:37;;;;;;;6.30;5.70;;;17.80;99.90;;;;;;5070019;28;20483;-67
2021/07/28 09:26:06;;;;;;;5.90;5.30;;;17.90;99.90;;;;;;5069347;28;20486;-66
2021/07/28 09:28:33;;;;;;;6.00;5.40;;;17.90;99.90;;;;;;5070108;28;20458;-67
2021/07/28 09:31:00;;;;;;;6.87;5.43;;;18.00;99.90;;;;;;5069104;28;20474;-67
2021/07/28 09:33:27;;;;;;;5.70;5.10;;;18.10;99.90;;;;;;5069704;28;20455;-67
2021/07/28 09:36:23;;;;;;;5.10;4.57;;;18.00;99.90;;;;;;5069838;28;20489;-67
2021/07/28 09:38:54;;;;;;;5.30;4.80;;;18.10;99.90;;;;;;5069707;28;20455;-66
2021/07/28 09:41:23;;;;;;;6.17;4.57;;;18.10;99.90;;;;;;5069365;28;20458;-66
2021/07/28 09:43:52;;;;;;;5.60;4.40;;;18.10;99.90;;;;;;5069285;28;20502;-67
2021/07/28 09:46:28;;;;;;;4.70;4.00;;;18.00;99.90;;;;;;5069111;28;20483;-67
2021/07/28 09:48:56;;;;;;;8.80;5.50;;;18.00;99.90;;;;;;5069035;28;20846;-66
2021/07/28 09:51:25;;;;;;;6.73;5.40;;;18.00;99.90;;;;;;5068742;28;20462;-67
2021/07/28 09:53:58;;;;;;;5.90;5.20;;;18.10;99.90;;;;;;5068997;28;20461;-66
2021/07/28 09:56:39;;;;;;;5.97;5.37;;;18.20;99.90;;;;;;5069406;28;20571;-66
2021/07/28 09:59:06;;;;;;;6.23;5.13;;;18.30;99.90;;;;;;5068714;28;20977;-66
2021/07/28 10:01:34;;;;;;;5.30;4.80;;;18.40;99.90;;;;;;5069011;28;20462;-66
2021/07/28 10:04:02;;;;;;;5.97;5.37;;;18.50;99.90;;;;;;5068993;28;20483;-67
2021/07/28 10:06:37;;;;;;;6.10;5.47;;;18.70;99.90;;;;;;5069071;28;20475;-67
2021/07/28 10:09:06;;;;;;;5.37;4.97;;;18.80;99.90;;;;;;5068269;28;20489;-67
2021/07/28 10:11:34;;;;;;;5.53;5.03;;;18.80;99.90;;;;;;5068795;28;20481;-68
2021/07/28 10:14:01;;;;;;;6.10;5.07;;;18.80;99.90;;;;;;5068838;28;20481;-67
2021/07/28 10:16:29;;;;;;;5.53;4.20;;;18.80;99.90;;;;;;5068806;28;20474;-67
2021/07/28 10:18:58;;;;;;;6.80;5.23;;;18.80;99.90;;;;;;5068911;28;20466;-69
2021/07/28 10:21:26;;;;;;;7.90;5.37;;;18.80;99.90;;;;;;5068454;28;20473;-66
2021/07/28 10:23:55;;;;;;;5.20;4.80;;;18.80;99.90;;;;;;5068601;28;21052;-68
2021/07/28 10:26:24;;;;;;;6.33;4.60;;;18.80;99.90;;;;;;5068768;28;20494;-66
2021/07/28 10:28:51;;;;;;;5.33;4.83;;;18.90;99.90;;;;;;5068498;28;20466;-67
2021/07/28 10:31:19;;;;;;;6.57;4.07;;;18.90;99.90;;;;;;5067979;28;20958;-67
2021/07/28 10:33:49;;;;;;;5.10;4.60;;;18.90;99.90;;;;;;5068511;28;20472;-66
2021/07/28 10:36:16;;;;;;;4.50;4.10;;;18.90;99.90;;;;;;5068380;28;20491;-67
2021/07/28 10:38:57;;;;;;;5.43;4.07;;;18.90;99.90;;;;;;5068797;28;20970;-67
2021/07/28 10:41:50;;;;;;;5.50;4.70;;;18.90;99.90;;;;;;5068134;28;20466;-67
2021/07/28 10:44:19;;;;;;;5.03;4.50;;;18.90;99.90;;;;;;5068162;28;20486;-67
2021/07/28 10:47:19;;;;;;;5.13;4.63;;;18.90;99.90;;;;;;5068333;28;20466;-67
2021/07/28 10:49:50;;;;;;;5.40;4.90;;;18.90;99.90;;;;;;5067063;28;20462;-67
2021/07/28 10:52:48;;;;;;;5.10;4.60;;;19.00;99.90;;;;;;5064830;28;20454;-67
2021/07/28 10:55:20;;;;;;;4.83;4.00;;;19.10;99.90;;;;;;5066072;28;20471;-67
2021/07/28 10:58:20;;;;;;;4.83;4.43;;;19.30;99.90;;;;;;5066338;28;20454;-67
2021/07/28 11:00:58;;;;;;;5.27;4.70;;;19.40;99.90;;;;;;5067808;28;20496;-67
2021/07/28 11:03:36;;;;;;;5.57;4.57;;;19.50;99.90;;;;;;5068259;28;20486;-67
2021/07/28 11:06:22;;;;;;;6.80;4.53;;;19.50;99.90;;;;;;5068472;28;20814;-66
2021/07/28 11:08:49;;;;;;;5.70;4.30;;;19.40;99.90;;;;;;5068299;28;20870;-67
2021/07/28 11:11:27;;;;;;;5.43;4.50;;;19.40;99.90;;;;;;5057371;28;20463;-68
2021/07/28 11:13:55;;;;;;;5.00;4.37;;;19.30;99.90;;;;;;5049802;28;20970;-67
2021/07/28 11:16:24;;;;;;;5.50;4.90;;;19.30;99.90;;;;;;5048448;28;20489;-66
2021/07/28 11:18:52;;;;;;;8.90;5.40;;;19.40;99.90;;;;;;5048348;28;20459;-66
2021/07/28 11:21:20;;;;;;;6.23;4.70;;;19.60;99.90;;;;;;5047860;28;20486;-67
2021/07/28 11:23:52;;;;;;;5.83;5.30;;;19.90;99.90;;;;;;5052087;28;20839;-66
2021/07/28 11:26:22;;;;;;;6.13;5.10;;;20.10;99.90;;;;;;5051717;28;20479;-66
2021/07/28 11:28:54;;;;;;;5.47;4.97;;;20.20;99.90;;;;;;5052125;28;20463;-66
2021/07/28 11:31:27;;;;;;;4.97;4.47;;;20.40;99.90;;;;;;5218335;22;20498;-76
2021/07/28 11:34:06;;;;;;;4.70;4.30;;;20.60;99.90;;;;;;5071269;28;20450;-76
2021/07/28 11:36:34;;;;;;;4.83;4.33;;;20.80;99.90;;;;;;5035584;28;20460;-76
2021/07/28 11:39:08;;;;;;;5.47;4.93;;;20.80;99.90;;;;;;5032513;28;21001;-76
2021/07/28 11:41:35;;;;;;;4.97;4.43;;;20.80;99.90;;;;;;5032392;28;20838;-76
2021/07/28 11:44:02;;;;;;;5.03;4.53;;;20.90;99.90;;;;;;5031518;28;20554;-76
2021/07/28 11:46:30;;;;;;;5.03;4.53;;;21.00;99.90;;;;;;5031981;28;20845;-77
2021/07/28 11:48:59;;;;;;;4.30;3.90;;;21.10;99.90;;;;;;5032064;28;20485;-76
2021/07/28 11:51:28;;;;;;;4.07;3.67;;;21.10;99.90;;;;;;5031604;28;20469;-76
2021/07/28 11:54:07;;;;;;;4.90;4.03;;;21.10;99.90;;;;;;5031761;28;20460;-77
2021/07/28 11:56:34;;;;;;;4.50;3.97;;;21.20;99.90;;;;;;5031815;28;20830;-77
2021/07/28 11:59:00;;;;;;;4.37;3.97;;;21.30;99.90;;;;;;5032003;28;20467;-77
2021/07/28 12:01:32;;;;;;;5.10;4.50;;;21.40;99.90;;;;;;5031428;28;20464;-77
2021/07/28 12:04:03;;;;;;;4.67;4.03;;;21.50;99.90;;;;;;5031908;28;20491;-77
2021/07/28 12:06:34;;;;;;;5.70;4.13;;;21.70;99.90;;;;;;5032094;28;21035;-77
2021/07/28 12:09:08;;;;;;;4.67;4.00;;;21.90;99.90;;;;;;5031399;28;20858;-76
2021/07/28 12:11:50;;;;;;;4.53;4.13;;;22.00;99.90;;;;;;5031754;28;20952;-77
2021/07/28 12:14:31;;;;;;;4.30;3.90;;;22.10;99.90;;;;;;5031160;28;20456;-76
2021/07/28 12:17:01;;;;;;;4.20;3.80;;;22.20;99.90;;;;;;5031378;28;20887;-76
2021/07/28 12:19:31;;;;;;;4.50;3.97;;;22.30;99.90;;;;;;5030670;28;20468;-75
2021/07/28 12:22:00;;;;;;;4.50;3.80;;;22.10;99.90;;;;;;5031658;28;20464;-76
2021/07/28 12:24:41;;;;;;;4.30;3.90;;;22.00;99.90;;;;;;5031566;28;20488;-76
2021/07/28 12:28:08;;;;;;;3.90;3.60;;;21.80;99.90;;;;;;5031271;28;20471;-76
2021/07/28 12:30:36;;;;;;;4.53;4.13;;;21.70;99.90;;;;;;5031270;28;20456;-76
2021/07/28 12:33:09;;;;;;;4.77;4.30;;;21.80;99.90;;;;;;5030437;28;20456;-76
2021/07/28 12:35:40;;;;;;;5.63;4.37;;;21.80;99.90;;;;;;5031273;28;20480;-76
2021/07/28 12:38:12;;;;;;;4.10;3.77;;;21.90;99.90;;;;;;5030665;28;20562;-76
2021/07/28 12:40:41;;;;;;;4.47;4.07;;;21.90;99.90;;;;;;5030574;28;20675;-76
2021/07/28 12:43:08;;;;;;;5.03;4.60;;;21.90;99.90;;;;;;5030864;28;20456;-76
2021/07/28 12:45:36;;;;;;;4.80;4.17;;;22.00;99.90;;;;;;5030768;28;20559;-76
2021/07/28 12:48:03;;;;;;;4.40;4.00;;;22.20;99.90;;;;;;5030296;28;20960;-76
2021/07/28 12:50:33;;;;;;;4.43;4.03;;;22.40;99.90;;;;;;5029854;28;20452;-76
2021/07/28 12:52:59;;;;;;;8.33;4.20;;;22.50;99.90;;;;;;5030336;28;20460;-76
2021/07/28 12:55:26;;;;;;;4.90;3.90;;;22.70;99.90;;;;;;5030986;28;20858;-76
2021/07/28 12:57:53;;;;;;;4.10;3.70;;;22.80;99.90;;;;;;5030475;28;20543;-76
2021/07/28 13:00:20;;;;;;;6.00;4.00;;;22.90;99.90;;;;;;5029988;28;20467;-76